createdAt,value
2019-05-26T00:01:27.486Z,99.90
2019-05-26T00:03:56.670Z,99.90
2019-05-26T00:06:25.614Z,99.90
2019-05-26T00:08:54.857Z,99.90
2019-05-26T00:11:23.857Z,99.90
2019-05-26T00:13:53.099Z,99.90
2019-05-26T00:16:22.102Z,99.90
2019-05-26T00:18:51.029Z,99.90
2019-05-26T00:21:20.472Z,99.90
2019-05-26T00:23:49.394Z,99.90
2019-05-26T00:26:18.466Z,99.90
2019-05-26T00:28:47.413Z,99.90
2019-05-26T00:31:16.346Z,99.90
2019-05-26T00:33:45.629Z,99.90
2019-05-26T00:36:14.611Z,99.90
2019-05-26T00:38:43.554Z,99.90
2019-05-26T00:41:12.619Z,99.90
2019-05-26T00:43:41.641Z,99.90
2019-05-26T00:46:10.646Z,99.90
2019-05-26T00:48:39.662Z,99.90
2019-05-26T00:51:08.693Z,99.90
2019-05-26T00:53:37.706Z,99.90
2019-05-26T00:56:06.707Z,99.90
2019-05-26T00:58:35.746Z,99.90
2019-05-26T01:01:04.738Z,99.90
2019-05-26T01:03:33.746Z,99.90
2019-05-26T01:06:02.784Z,99.90
2019-05-26T01:08:31.701Z,99.90
2019-05-26T01:11:01.562Z,99.90
2019-05-26T01:13:31.640Z,99.90
2019-05-26T01:16:00.898Z,99.90
2019-05-26T01:18:29.893Z,99.90
2019-05-26T01:20:59.158Z,99.90
2019-05-26T01:23:28.246Z,99.90
2019-05-26T01:25:57.173Z,99.90
2019-05-26T01:28:26.155Z,99.90
2019-05-26T01:30:55.177Z,99.90
2019-05-26T01:33:24.200Z,99.90
2019-05-26T01:35:53.327Z,99.90
2019-05-26T01:38:24.507Z,99.90
2019-05-26T01:40:53.140Z,99.90
2019-05-26T01:43:22.168Z,99.90
2019-05-26T01:45:51.186Z,99.90
2019-05-26T01:48:20.181Z,99.90
2019-05-26T01:50:49.229Z,99.90
2019-05-26T01:53:18.149Z,99.90
2019-05-26T01:55:47.709Z,99.90
2019-05-26T01:58:16.820Z,99.90
2019-05-26T02:00:45.834Z,99.90
2019-05-26T02:03:14.843Z,99.90
2019-05-26T02:05:43.861Z,99.90
2019-05-26T02:08:12.891Z,99.90
2019-05-26T02:10:41.815Z,99.90
2019-05-26T02:13:10.826Z,99.90
2019-05-26T02:15:39.931Z,99.90
2019-05-26T02:18:08.921Z,99.90
2019-05-26T02:20:37.952Z,99.90
2019-05-26T02:23:06.954Z,99.90
2019-05-26T02:25:35.967Z,99.90
2019-05-26T02:28:05.007Z,99.90
2019-05-26T02:30:34.108Z,99.90
2019-05-26T02:33:03.046Z,99.90
2019-05-26T02:35:32.080Z,99.90
2019-05-26T02:38:01.102Z,99.90
2019-05-26T02:40:30.107Z,99.90
2019-05-26T02:42:59.438Z,99.90
2019-05-26T02:45:28.938Z,99.90
2019-05-26T02:47:58.362Z,99.90
2019-05-26T02:50:27.385Z,99.90
2019-05-26T02:52:56.576Z,99.90
2019-05-26T02:55:25.590Z,99.90
2019-05-26T02:57:54.624Z,99.90
2019-05-26T03:00:37.545Z,99.90
2019-05-26T03:03:07.368Z,99.90
2019-05-26T03:05:36.888Z,99.90
2019-05-26T03:08:07.496Z,99.90
2019-05-26T03:10:37.892Z,99.90
2019-05-26T03:13:06.925Z,99.90
2019-05-26T03:15:36.346Z,99.90
2019-05-26T03:18:06.557Z,99.90
2019-05-26T03:20:39.470Z,99.90
2019-05-26T03:23:09.224Z,99.90
2019-05-26T03:25:38.455Z,99.90
2019-05-26T03:28:07.506Z,99.90
2019-05-26T03:30:36.669Z,99.90
2019-05-26T03:33:05.715Z,99.90
2019-05-26T03:35:34.811Z,99.90
2019-05-26T03:38:03.995Z,99.90
2019-05-26T03:40:33.002Z,99.90
2019-05-26T03:43:02.026Z,99.90
2019-05-26T03:46:20.090Z,99.90
2019-05-26T03:48:49.615Z,99.90
2019-05-26T03:51:19.095Z,99.90
2019-05-26T03:53:48.190Z,99.90
2019-05-26T03:56:17.123Z,99.90
2019-05-26T03:58:46.150Z,99.90
2019-05-26T04:01:15.259Z,99.90
2019-05-26T04:03:44.265Z,99.90
2019-05-26T04:06:13.307Z,99.90
2019-05-26T04:08:42.344Z,99.90
2019-05-26T04:11:11.283Z,99.90
2019-05-26T04:13:40.299Z,99.90
2019-05-26T04:16:09.331Z,99.90
2019-05-26T04:18:38.358Z,99.90
2019-05-26T04:21:07.365Z,99.90
2019-05-26T04:23:36.395Z,99.90
2019-05-26T04:26:05.524Z,99.90
2019-05-26T04:28:34.399Z,99.90
2019-05-26T04:31:03.357Z,99.90
2019-05-26T04:33:32.287Z,99.90
2019-05-26T04:36:01.219Z,99.90
2019-05-26T04:38:30.319Z,99.90
2019-05-26T04:40:59.311Z,99.90
2019-05-26T04:43:28.311Z,99.90
2019-05-26T04:45:57.368Z,99.90
2019-05-26T04:48:26.397Z,99.90
2019-05-26T04:50:55.337Z,99.90
2019-05-26T04:53:24.394Z,99.90
2019-05-26T04:55:53.379Z,99.90
2019-05-26T04:58:22.445Z,99.90
2019-05-26T05:00:51.471Z,99.90
2019-05-26T05:03:20.511Z,99.90
2019-05-26T05:05:49.514Z,99.90
2019-05-26T05:08:19.022Z,99.90
2019-05-26T05:10:47.969Z,99.90
2019-05-26T05:13:16.973Z,99.90
2019-05-26T05:15:46.095Z,99.90
2019-05-26T05:18:15.051Z,99.90
2019-05-26T05:20:44.287Z,99.90
2019-05-26T05:23:13.335Z,99.90
2019-05-26T05:25:42.258Z,99.90
2019-05-26T05:28:11.188Z,99.90
2019-05-26T05:30:40.214Z,99.90
2019-05-26T05:33:09.214Z,99.90
2019-05-26T05:35:39.062Z,99.90
2019-05-26T05:38:08.256Z,99.90
2019-05-26T05:40:37.270Z,99.90
2019-05-26T05:43:06.308Z,99.90
2019-05-26T05:45:35.395Z,99.90
2019-05-26T05:48:04.503Z,99.90
2019-05-26T05:50:33.513Z,99.90
2019-05-26T05:53:02.612Z,99.90
2019-05-26T05:55:31.538Z,99.90
2019-05-26T05:58:00.414Z,99.90
2019-05-26T06:00:29.742Z,99.90
2019-05-26T06:03:00.466Z,99.90
2019-05-26T06:05:29.435Z,99.90
2019-05-26T06:07:58.417Z,99.90
2019-05-26T06:10:27.496Z,99.90
2019-05-26T06:12:56.347Z,99.90
2019-05-26T06:15:25.290Z,99.90
2019-05-26T06:17:54.286Z,99.90
2019-05-26T06:20:23.297Z,99.90
2019-05-26T06:22:52.307Z,99.90
2019-05-26T06:25:21.315Z,99.90
2019-05-26T06:27:50.598Z,99.90
2019-05-26T06:30:19.853Z,99.90
2019-05-26T06:32:48.807Z,99.90
2019-05-26T06:35:18.820Z,98.60
2019-05-26T06:37:47.927Z,98.30
2019-05-26T06:40:17.043Z,98.90
2019-05-26T06:42:46.125Z,96.10
2019-05-26T06:45:15.354Z,96.20
2019-05-26T06:47:44.367Z,96.00
2019-05-26T06:50:13.357Z,94.40
2019-05-26T06:52:42.374Z,95.50
2019-05-26T06:55:12.097Z,93.50
2019-05-26T06:57:41.093Z,94.00
2019-05-26T07:00:11.487Z,91.70
2019-05-26T07:02:40.704Z,90.90
2019-05-26T07:05:09.818Z,92.40
2019-05-26T07:07:38.917Z,90.90
2019-05-26T07:10:08.336Z,90.00
2019-05-26T07:12:37.279Z,91.50
2019-05-26T07:15:06.872Z,86.40
2019-05-26T07:17:35.930Z,84.60
2019-05-26T07:20:05.464Z,87.20
2019-05-26T07:22:34.498Z,86.20
2019-05-26T07:25:03.528Z,79.20
2019-05-26T07:27:32.469Z,81.70
2019-05-26T07:30:01.658Z,82.70
2019-05-26T07:32:30.690Z,80.80
2019-05-26T07:34:59.753Z,77.20
2019-05-26T07:37:28.723Z,78.70
2019-05-26T07:39:57.899Z,79.40
2019-05-26T07:42:26.902Z,78.40
2019-05-26T07:44:55.934Z,73.60
2019-05-26T07:47:24.914Z,72.30
2019-05-26T07:49:53.843Z,69.40
2019-05-26T07:52:22.867Z,72.10
2019-05-26T07:54:51.883Z,71.40
2019-05-26T07:57:20.739Z,67.20
2019-05-26T07:59:49.766Z,67.90
2019-05-26T08:02:18.961Z,66.60
2019-05-26T08:04:48.203Z,69.30
2019-05-26T08:07:17.150Z,65.70
2019-05-26T08:09:46.978Z,66.70
2019-05-26T08:12:25.969Z,64.50
2019-05-26T08:14:46.727Z,68.80
2019-05-26T08:17:15.730Z,66.20
2019-05-26T08:19:44.731Z,66.40
2019-05-26T08:22:13.690Z,62.80
2019-05-26T08:24:42.560Z,65.80
2019-05-26T08:27:11.555Z,64.60
2019-05-26T08:29:40.446Z,62.80
2019-05-26T08:32:09.451Z,60.70
2019-05-26T08:34:38.447Z,62.40
2019-05-26T08:37:07.590Z,59.80
2019-05-26T08:39:36.582Z,64.40
2019-05-26T08:42:05.623Z,63.00
2019-05-26T08:44:34.903Z,58.80
2019-05-26T08:47:03.934Z,59.80
2019-05-26T08:49:32.894Z,60.00
2019-05-26T08:52:01.836Z,64.60
2019-05-26T08:54:31.086Z,62.00
2019-05-26T08:57:00.414Z,58.30
2019-05-26T08:59:29.521Z,60.40
2019-05-26T09:01:58.449Z,57.10
2019-05-26T09:04:27.795Z,60.10
2019-05-26T09:06:56.905Z,63.40
2019-05-26T09:09:25.779Z,62.30
2019-05-26T09:11:55.101Z,56.70
2019-05-26T09:14:25.585Z,59.20
2019-05-26T09:16:54.661Z,60.60
2019-05-26T09:19:23.667Z,59.60
2019-05-26T09:21:52.610Z,60.90
2019-05-26T09:24:21.612Z,59.80
2019-05-26T09:26:50.822Z,59.50
2019-05-26T09:29:19.858Z,57.40
2019-05-26T09:31:49.042Z,57.20
2019-05-26T09:34:17.899Z,57.10
2019-05-26T09:36:47.198Z,54.70
2019-05-26T09:39:16.239Z,60.10
2019-05-26T09:41:45.178Z,54.10
2019-05-26T09:44:14.215Z,54.10
2019-05-26T09:46:43.176Z,54.00
2019-05-26T09:49:12.123Z,53.10
2019-05-26T09:51:41.094Z,54.20
2019-05-26T09:54:12.637Z,57.40
2019-05-26T09:56:40.622Z,53.40
2019-05-26T09:59:09.556Z,54.00
2019-05-26T10:01:38.803Z,54.20
2019-05-26T10:04:07.722Z,53.60
2019-05-26T10:06:36.689Z,52.60
2019-05-26T10:09:07.555Z,49.90
2019-05-26T10:11:36.495Z,52.30
2019-05-26T10:14:05.525Z,50.30
2019-05-26T10:16:34.841Z,53.70
2019-05-26T10:19:03.882Z,52.20
2019-05-26T10:21:33.226Z,53.20
2019-05-26T10:24:02.383Z,53.50
2019-05-26T10:26:31.712Z,51.80
2019-05-26T10:29:01.041Z,52.30
2019-05-26T10:31:30.431Z,52.80
2019-05-26T10:33:59.359Z,52.50
2019-05-26T10:36:28.396Z,53.40
2019-05-26T10:38:57.309Z,52.10
2019-05-26T10:41:26.162Z,53.20
2019-05-26T10:43:55.213Z,53.20
2019-05-26T10:46:24.137Z,55.50
2019-05-26T10:48:53.062Z,55.80
2019-05-26T10:51:22.114Z,56.00
2019-05-26T10:53:51.692Z,53.20
2019-05-26T10:56:20.617Z,55.40
2019-05-26T10:58:49.946Z,56.00
2019-05-26T11:01:19.178Z,56.40
2019-05-26T11:03:48.222Z,55.80
2019-05-26T11:06:17.429Z,56.10
2019-05-26T11:08:46.458Z,56.80
2019-05-26T11:11:15.724Z,57.20
2019-05-26T11:13:44.780Z,57.00
2019-05-26T11:16:13.769Z,57.60
2019-05-26T11:18:43.026Z,58.40
2019-05-26T11:21:12.582Z,58.70
2019-05-26T11:23:42.739Z,58.20
2019-05-26T11:26:11.746Z,59.30
2019-05-26T11:28:40.786Z,59.40
2019-05-26T11:31:09.780Z,57.90
2019-05-26T11:33:38.788Z,58.20
2019-05-26T11:36:07.831Z,59.50
2019-05-26T11:38:36.764Z,59.90
2019-05-26T11:41:05.691Z,59.30
2019-05-26T11:43:34.722Z,59.30
2019-05-26T11:46:03.712Z,59.10
2019-05-26T11:48:32.678Z,60.80
2019-05-26T11:51:01.826Z,60.60
2019-05-26T11:53:31.063Z,59.60
2019-05-26T11:56:00.122Z,60.10
2019-05-26T11:58:28.995Z,60.40
2019-05-26T12:00:57.858Z,60.30
2019-05-26T12:03:27.231Z,60.50
2019-05-26T12:05:56.187Z,60.70
2019-05-26T12:08:25.151Z,61.70
2019-05-26T12:10:54.104Z,59.30
2019-05-26T12:13:23.144Z,61.60
2019-05-26T12:15:52.356Z,59.50
2019-05-26T12:18:21.598Z,61.10
2019-05-26T12:20:50.558Z,58.90
2019-05-26T12:23:19.790Z,61.10
2019-05-26T12:25:48.810Z,57.70
2019-05-26T12:28:17.756Z,57.30
2019-05-26T12:30:46.822Z,57.20
2019-05-26T12:33:15.891Z,55.60
2019-05-26T12:35:46.096Z,59.80
2019-05-26T12:38:15.338Z,57.90
2019-05-26T12:40:44.347Z,59.30
2019-05-26T12:43:13.358Z,58.70
2019-05-26T12:45:42.371Z,58.30
2019-05-26T12:48:11.743Z,59.20
2019-05-26T12:50:40.870Z,59.10
2019-05-26T12:53:09.999Z,60.00
2019-05-26T12:55:39.014Z,60.80
2019-05-26T12:58:08.273Z,61.90
2019-05-26T13:00:48.272Z,60.20
2019-05-26T13:03:08.032Z,60.60
2019-05-26T13:05:37.062Z,61.90
2019-05-26T13:08:06.075Z,60.30
2019-05-26T13:10:35.013Z,60.50
2019-05-26T13:13:04.070Z,61.20
2019-05-26T13:15:33.086Z,60.30
2019-05-26T13:18:02.043Z,61.50
2019-05-26T13:20:31.091Z,60.70
2019-05-26T13:23:00.111Z,61.30
2019-05-26T13:25:29.131Z,62.60
2019-05-26T13:27:58.236Z,61.80
2019-05-26T13:30:27.400Z,62.30
2019-05-26T13:32:56.427Z,62.20
2019-05-26T13:35:25.465Z,63.20
2019-05-26T13:37:54.406Z,63.30
2019-05-26T13:40:23.524Z,61.90
2019-05-26T13:42:52.618Z,62.80
2019-05-26T13:45:23.307Z,63.30
2019-05-26T13:47:52.562Z,64.30
2019-05-26T13:50:21.906Z,63.40
2019-05-26T13:52:50.924Z,63.80
2019-05-26T13:55:20.122Z,63.80
2019-05-26T13:57:49.758Z,63.50
2019-05-26T14:00:19.856Z,63.10
2019-05-26T14:02:48.881Z,63.50
2019-05-26T14:05:18.060Z,63.50
2019-05-26T14:07:47.061Z,64.30
2019-05-26T14:10:32.578Z,64.00
2019-05-26T14:13:01.594Z,64.70
2019-05-26T14:15:38.055Z,64.00
2019-05-26T14:18:03.226Z,65.20
2019-05-26T14:20:39.716Z,64.00
2019-05-26T14:23:09.720Z,63.60
2019-05-26T14:25:38.794Z,63.70
2019-05-26T14:28:08.318Z,64.20
2019-05-26T14:30:37.625Z,63.00
2019-05-26T14:33:06.749Z,62.40
2019-05-26T14:35:35.769Z,61.50
2019-05-26T14:38:04.802Z,63.80
2019-05-26T14:40:33.826Z,63.10
2019-05-26T14:43:02.887Z,63.80
2019-05-26T14:45:31.902Z,64.20
2019-05-26T14:48:01.042Z,64.00
2019-05-26T14:50:30.051Z,65.00
2019-05-26T14:52:58.990Z,64.00
2019-05-26T14:55:28.305Z,64.20
2019-05-26T14:58:12.130Z,64.10
2019-05-26T15:00:28.229Z,64.20
2019-05-26T15:02:57.222Z,63.60
2019-05-26T15:05:26.230Z,63.20
2019-05-26T15:07:55.251Z,64.40
2019-05-26T15:10:24.252Z,63.90
2019-05-26T15:12:53.298Z,63.50
2019-05-26T15:15:23.921Z,62.30
2019-05-26T15:17:53.194Z,61.40
2019-05-26T15:20:22.122Z,61.90
2019-05-26T15:22:51.167Z,62.90
2019-05-26T15:25:20.425Z,63.80
2019-05-26T15:27:49.374Z,63.70
2019-05-26T15:30:18.623Z,62.80
2019-05-26T15:32:48.404Z,63.20
2019-05-26T15:35:17.393Z,63.30
2019-05-26T15:37:46.361Z,63.00
2019-05-26T15:40:15.365Z,63.40
2019-05-26T15:42:44.697Z,60.90
2019-05-26T15:45:14.623Z,62.50
2019-05-26T15:47:43.727Z,62.70
2019-05-26T15:50:13.859Z,62.60
2019-05-26T15:52:42.960Z,59.20
2019-05-26T15:55:12.070Z,60.80
2019-05-26T15:57:41.090Z,62.50
2019-05-26T16:00:10.807Z,62.50
2019-05-26T16:02:39.805Z,62.80
2019-05-26T16:05:10.461Z,63.30
2019-05-26T16:07:39.554Z,62.10
2019-05-26T16:10:09.695Z,62.60
2019-05-26T16:12:39.017Z,61.80
2019-05-26T16:15:09.638Z,61.50
2019-05-26T16:17:39.266Z,61.50
2019-05-26T16:20:08.647Z,61.50
2019-05-26T16:22:37.677Z,63.30
2019-05-26T16:25:06.995Z,63.00
2019-05-26T16:27:35.931Z,63.60
2019-05-26T16:30:05.752Z,63.30
2019-05-26T16:32:34.759Z,64.40
2019-05-26T16:35:03.812Z,62.00
2019-05-26T16:37:33.410Z,61.00
2019-05-26T16:40:02.418Z,62.40
2019-05-26T16:42:31.339Z,62.20
2019-05-26T16:45:00.300Z,62.10
2019-05-26T16:47:29.452Z,62.90
2019-05-26T16:49:58.397Z,62.30
2019-05-26T16:52:27.423Z,64.50
2019-05-26T16:54:56.435Z,63.80
2019-05-26T16:57:25.453Z,64.20
2019-05-26T16:59:54.402Z,64.30
2019-05-26T17:02:23.318Z,64.30
2019-05-26T17:04:52.249Z,63.70
2019-05-26T17:07:21.267Z,64.60
2019-05-26T17:09:50.138Z,64.00
2019-05-26T17:12:19.134Z,64.70
2019-05-26T17:14:48.194Z,65.30
2019-05-26T17:17:17.126Z,64.40
2019-05-26T17:19:46.123Z,64.50
2019-05-26T17:22:15.145Z,65.00
2019-05-26T17:24:44.014Z,65.70
2019-05-26T17:27:13.011Z,65.50
2019-05-26T17:29:42.190Z,65.40
2019-05-26T17:32:11.196Z,65.30
2019-05-26T17:34:40.130Z,65.90
2019-05-26T17:37:09.399Z,66.00
2019-05-26T17:39:38.321Z,64.90
2019-05-26T17:42:07.409Z,64.70
2019-05-26T17:44:36.570Z,65.40
2019-05-26T17:47:05.675Z,65.30
2019-05-26T17:49:35.025Z,64.80
2019-05-26T17:52:04.081Z,64.90
2019-05-26T17:54:33.459Z,65.80
2019-05-26T17:57:02.563Z,65.00
2019-05-26T17:59:31.793Z,65.70
2019-05-26T18:02:01.869Z,65.40
2019-05-26T18:04:31.129Z,65.20
2019-05-26T18:07:00.102Z,65.60
2019-05-26T18:09:43.290Z,65.80
2019-05-26T18:12:00.466Z,66.50
2019-05-26T18:14:29.434Z,67.10
2019-05-26T18:16:58.523Z,65.70
2019-05-26T18:19:29.847Z,66.30
2019-05-26T18:21:58.725Z,67.90
2019-05-26T18:24:27.808Z,65.90
2019-05-26T18:26:56.738Z,65.70
2019-05-26T18:29:25.768Z,66.40
2019-05-26T18:31:54.692Z,66.30
2019-05-26T18:34:23.775Z,67.20
2019-05-26T18:36:52.963Z,67.50
2019-05-26T18:39:22.007Z,67.10
2019-05-26T18:41:51.417Z,67.70
2019-05-26T18:44:20.645Z,68.20
2019-05-26T18:46:53.185Z,68.90
2019-05-26T18:49:21.417Z,73.60
2019-05-26T18:51:50.438Z,73.50
2019-05-26T18:54:19.701Z,73.40
2019-05-26T18:56:48.714Z,72.80
2019-05-26T18:59:18.036Z,75.90
2019-05-26T19:01:47.219Z,78.30
2019-05-26T19:04:16.228Z,80.70
2019-05-26T19:06:45.246Z,82.00
2019-05-26T19:09:15.135Z,81.00
2019-05-26T19:11:44.096Z,82.00
2019-05-26T19:14:13.118Z,84.80
2019-05-26T19:16:42.119Z,84.60
2019-05-26T19:19:11.049Z,82.70
2019-05-26T19:21:40.119Z,84.90
2019-05-26T19:24:09.209Z,84.30
2019-05-26T19:26:38.577Z,83.80
2019-05-26T19:29:07.604Z,84.60
2019-05-26T19:31:36.599Z,85.90
2019-05-26T19:34:05.710Z,87.10
2019-05-26T19:36:34.990Z,87.00
2019-05-26T19:39:05.290Z,89.40
2019-05-26T19:41:34.219Z,86.90
2019-05-26T19:44:03.475Z,88.40
2019-05-26T19:46:32.492Z,88.50
2019-05-26T19:49:01.498Z,88.40
2019-05-26T19:51:30.553Z,88.80
2019-05-26T19:53:59.572Z,87.50
2019-05-26T19:56:28.539Z,88.70
2019-05-26T19:58:58.475Z,90.00
2019-05-26T20:01:27.607Z,90.60
2019-05-26T20:03:56.448Z,90.70
2019-05-26T20:06:27.187Z,90.90
2019-05-26T20:08:56.181Z,91.20
2019-05-26T20:11:25.125Z,91.30
2019-05-26T20:13:54.398Z,91.40
2019-05-26T20:16:23.389Z,92.30
2019-05-26T20:18:52.375Z,92.70
2019-05-26T20:21:21.635Z,93.40
2019-05-26T20:23:50.572Z,94.30
2019-05-26T20:26:20.995Z,94.50
2019-05-26T20:28:52.802Z,94.30
2019-05-26T20:31:21.730Z,95.00
2019-05-26T20:33:52.109Z,95.30
2019-05-26T20:36:21.133Z,95.40
2019-05-26T20:38:50.069Z,96.00
2019-05-26T20:41:18.934Z,96.20
2019-05-26T20:43:47.882Z,96.80
2019-05-26T20:46:16.885Z,96.50
2019-05-26T20:48:45.824Z,97.60
2019-05-26T20:51:15.123Z,97.60
2019-05-26T20:53:44.130Z,97.90
2019-05-26T20:56:13.065Z,98.50
2019-05-26T20:58:42.008Z,99.50
2019-05-26T21:01:11.167Z,99.00
2019-05-26T21:03:40.102Z,99.80
2019-05-26T21:06:09.119Z,99.90
2019-05-26T21:08:39.909Z,99.80
2019-05-26T21:11:08.833Z,99.90
2019-05-26T21:13:37.793Z,99.90
2019-05-26T21:16:06.793Z,99.90
2019-05-26T21:18:35.639Z,99.90
2019-05-26T21:21:05.439Z,99.90
2019-05-26T21:23:34.365Z,99.90
2019-05-26T21:26:03.219Z,99.90
2019-05-26T21:28:32.415Z,99.90
2019-05-26T21:31:01.351Z,99.90
2019-05-26T21:33:30.365Z,99.90
2019-05-26T21:35:59.223Z,99.90
2019-05-26T21:38:28.166Z,99.90
2019-05-26T21:40:57.085Z,99.90
2019-05-26T21:43:26.019Z,99.90
2019-05-26T21:45:55.026Z,99.90
2019-05-26T21:48:24.037Z,99.90
2019-05-26T21:50:53.130Z,99.90
2019-05-26T21:53:21.987Z,99.90
2019-05-26T21:55:50.833Z,99.90
2019-05-26T21:58:19.774Z,99.90
2019-05-26T22:00:50.262Z,99.90
2019-05-26T22:03:19.502Z,99.90
2019-05-26T22:05:48.516Z,99.90
2019-05-26T22:08:17.429Z,99.90
2019-05-26T22:10:46.282Z,99.90
2019-05-26T22:13:15.486Z,99.90
2019-05-26T22:15:44.394Z,99.90
2019-05-26T22:18:13.388Z,99.90
2019-05-26T22:20:42.564Z,99.90
2019-05-26T22:23:11.403Z,99.90
2019-05-26T22:25:40.322Z,99.90
2019-05-26T22:28:09.345Z,99.90
2019-05-26T22:30:38.374Z,99.90
2019-05-26T22:33:07.297Z,99.90
2019-05-26T22:35:36.233Z,99.90
2019-05-26T22:38:05.241Z,99.90
2019-05-26T22:40:34.323Z,99.90
2019-05-26T22:43:03.203Z,99.90
2019-05-26T22:45:32.127Z,99.90
2019-05-26T22:48:01.123Z,99.90
2019-05-26T22:50:30.145Z,99.90
2019-05-26T22:52:59.003Z,99.90
2019-05-26T22:55:28.001Z,99.90
2019-05-26T22:57:56.958Z,99.90
2019-05-26T23:00:25.965Z,99.90
2019-05-26T23:02:54.798Z,99.90
2019-05-26T23:05:23.669Z,99.90
2019-05-26T23:07:52.678Z,99.90
2019-05-26T23:10:21.690Z,99.90
2019-05-26T23:12:50.854Z,99.90
2019-05-26T23:15:19.980Z,99.90
2019-05-26T23:17:48.822Z,99.90
2019-05-26T23:20:18.372Z,99.90
2019-05-26T23:22:47.366Z,99.90
2019-05-26T23:25:16.820Z,99.90
2019-05-26T23:27:45.833Z,99.90
2019-05-26T23:30:15.635Z,99.90
2019-05-26T23:32:44.631Z,99.90
2019-05-26T23:35:13.755Z,99.90
2019-05-26T23:37:42.758Z,99.90
2019-05-26T23:40:11.679Z,99.90
2019-05-26T23:42:40.618Z,99.90
2019-05-26T23:45:09.629Z,99.90
2019-05-26T23:47:38.559Z,99.90
2019-05-26T23:50:08.044Z,99.90
2019-05-26T23:52:37.050Z,99.90
2019-05-26T23:55:06.418Z,99.90
2019-05-26T23:57:35.802Z,99.90
